sensor_id;sensor_type;location;lat;lon;timestamp;P1;durP1;ratioP1;P2;durP2;ratioP2
45764;SDS011;31474;45.332;10.230;2024-03-02T00:01:11;3.00;;;1.75;;
45764;SDS011;31474;45.332;10.230;2024-03-02T00:03:37;3.08;;;1.77;;
45764;SDS011;31474;45.332;10.230;2024-03-02T00:06:03;2.83;;;1.70;;
45764;SDS011;31474;45.332;10.230;2024-03-02T00:08:29;2.25;;;1.38;;
45764;SDS011;31474;45.332;10.230;2024-03-02T00:10:58;3.08;;;1.95;;
45764;SDS011;31474;45.332;10.230;2024-03-02T00:13:25;2.10;;;1.30;;
45764;SDS011;31474;45.332;10.230;2024-03-02T00:15:54;4.25;;;1.83;;
45764;SDS011;31474;45.332;10.230;2024-03-02T00:18:25;1.60;;;1.42;;
45764;SDS011;31474;45.332;10.230;2024-03-02T00:20:52;3.42;;;2.13;;
45764;SDS011;31474;45.332;10.230;2024-03-02T00:23:21;2.50;;;1.50;;
45764;SDS011;31474;45.332;10.230;2024-03-02T00:25:47;2.38;;;2.08;;
45764;SDS011;31474;45.332;10.230;2024-03-02T00:28:22;3.08;;;1.80;;
45764;SDS011;31474;45.332;10.230;2024-03-02T00:33:22;2.83;;;1.40;;
45764;SDS011;31474;45.332;10.230;2024-03-02T00:35:49;4.93;;;1.63;;
45764;SDS011;31474;45.332;10.230;2024-03-02T00:38:15;2.30;;;1.65;;
45764;SDS011;31474;45.332;10.230;2024-03-02T00:40:44;3.13;;;2.10;;
45764;SDS011;31474;45.332;10.230;2024-03-02T00:43:12;2.03;;;1.35;;
45764;SDS011;31474;45.332;10.230;2024-03-02T00:45:46;3.58;;;1.77;;
45764;SDS011;31474;45.332;10.230;2024-03-02T00:48:13;1.85;;;1.40;;
45764;SDS011;31474;45.332;10.230;2024-03-02T00:50:41;2.72;;;1.90;;
45764;SDS011;31474;45.332;10.230;2024-03-02T00:53:09;3.00;;;1.50;;
45764;SDS011;31474;45.332;10.230;2024-03-02T00:55:36;2.20;;;1.33;;
45764;SDS011;31474;45.332;10.230;2024-03-02T00:58:03;2.55;;;1.35;;
45764;SDS011;31474;45.332;10.230;2024-03-02T01:00:29;3.15;;;2.10;;
45764;SDS011;31474;45.332;10.230;2024-03-02T01:02:54;2.70;;;1.70;;
45764;SDS011;31474;45.332;10.230;2024-03-02T01:05:20;2.22;;;1.60;;
45764;SDS011;31474;45.332;10.230;2024-03-02T01:07:45;2.65;;;1.20;;
45764;SDS011;31474;45.332;10.230;2024-03-02T01:10:11;2.53;;;1.63;;
45764;SDS011;31474;45.332;10.230;2024-03-02T01:12:37;2.13;;;1.40;;
45764;SDS011;31474;45.332;10.230;2024-03-02T01:15:03;3.28;;;1.92;;
45764;SDS011;31474;45.332;10.230;2024-03-02T01:17:31;1.58;;;1.30;;
45764;SDS011;31474;45.332;10.230;2024-03-02T01:19:57;5.10;;;2.70;;
45764;SDS011;31474;45.332;10.230;2024-03-02T01:22:23;2.47;;;1.45;;
45764;SDS011;31474;45.332;10.230;2024-03-02T01:24:50;2.80;;;1.75;;
45764;SDS011;31474;45.332;10.230;2024-03-02T01:27:16;3.47;;;1.35;;
45764;SDS011;31474;45.332;10.230;2024-03-02T01:29:42;2.03;;;1.70;;
45764;SDS011;31474;45.332;10.230;2024-03-02T01:32:07;1.73;;;1.30;;
45764;SDS011;31474;45.332;10.230;2024-03-02T01:34:33;2.53;;;1.55;;
45764;SDS011;31474;45.332;10.230;2024-03-02T01:36:59;2.05;;;1.17;;
45764;SDS011;31474;45.332;10.230;2024-03-02T01:39:24;2.70;;;1.73;;
45764;SDS011;31474;45.332;10.230;2024-03-02T01:41:50;2.65;;;1.13;;
45764;SDS011;31474;45.332;10.230;2024-03-02T01:44:15;2.97;;;1.42;;
45764;SDS011;31474;45.332;10.230;2024-03-02T01:46:42;2.20;;;1.67;;
45764;SDS011;31474;45.332;10.230;2024-03-02T01:49:07;2.42;;;1.55;;
45764;SDS011;31474;45.332;10.230;2024-03-02T01:51:33;2.65;;;0.95;;
45764;SDS011;31474;45.332;10.230;2024-03-02T01:53:59;3.22;;;1.60;;
45764;SDS011;31474;45.332;10.230;2024-03-02T01:56:24;2.40;;;1.55;;
45764;SDS011;31474;45.332;10.230;2024-03-02T01:58:50;3.13;;;1.67;;
45764;SDS011;31474;45.332;10.230;2024-03-02T02:01:16;1.73;;;1.17;;
45764;SDS011;31474;45.332;10.230;2024-03-02T02:03:43;1.77;;;1.42;;
45764;SDS011;31474;45.332;10.230;2024-03-02T02:06:09;3.00;;;1.10;;
45764;SDS011;31474;45.332;10.230;2024-03-02T02:08:36;2.83;;;1.80;;
45764;SDS011;31474;45.332;10.230;2024-03-02T02:11:02;2.50;;;1.80;;
45764;SDS011;31474;45.332;10.230;2024-03-02T02:13:28;2.35;;;1.52;;
45764;SDS011;31474;45.332;10.230;2024-03-02T02:15:54;1.88;;;1.13;;
45764;SDS011;31474;45.332;10.230;2024-03-02T02:18:19;2.15;;;1.48;;
45764;SDS011;31474;45.332;10.230;2024-03-02T02:20:45;2.72;;;1.52;;
45764;SDS011;31474;45.332;10.230;2024-03-02T02:23:11;2.42;;;1.40;;
45764;SDS011;31474;45.332;10.230;2024-03-02T02:25:38;2.15;;;1.20;;
45764;SDS011;31474;45.332;10.230;2024-03-02T02:28:04;2.33;;;1.38;;
45764;SDS011;31474;45.332;10.230;2024-03-02T02:30:30;1.55;;;0.80;;
45764;SDS011;31474;45.332;10.230;2024-03-02T02:32:57;3.05;;;2.03;;
45764;SDS011;31474;45.332;10.230;2024-03-02T02:35:23;2.17;;;1.20;;
45764;SDS011;31474;45.332;10.230;2024-03-02T02:37:52;1.98;;;1.58;;
45764;SDS011;31474;45.332;10.230;2024-03-02T02:40:19;2.00;;;1.48;;
45764;SDS011;31474;45.332;10.230;2024-03-02T02:42:45;3.17;;;1.63;;
45764;SDS011;31474;45.332;10.230;2024-03-02T02:45:11;1.65;;;1.17;;
45764;SDS011;31474;45.332;10.230;2024-03-02T02:47:38;1.98;;;1.30;;
45764;SDS011;31474;45.332;10.230;2024-03-02T02:50:04;2.35;;;1.83;;
45764;SDS011;31474;45.332;10.230;2024-03-02T02:52:33;3.25;;;1.30;;
45764;SDS011;31474;45.332;10.230;2024-03-02T02:55:01;1.73;;;1.38;;
45764;SDS011;31474;45.332;10.230;2024-03-02T02:57:32;3.83;;;1.98;;
45764;SDS011;31474;45.332;10.230;2024-03-02T03:00:04;2.13;;;1.42;;
45764;SDS011;31474;45.332;10.230;2024-03-02T03:02:36;2.20;;;1.70;;
45764;SDS011;31474;45.332;10.230;2024-03-02T03:05:06;3.15;;;1.85;;
45764;SDS011;31474;45.332;10.230;2024-03-02T03:07:33;1.30;;;0.98;;
45764;SDS011;31474;45.332;10.230;2024-03-02T03:09:59;3.72;;;1.67;;
45764;SDS011;31474;45.332;10.230;2024-03-02T03:12:25;2.10;;;1.30;;
45764;SDS011;31474;45.332;10.230;2024-03-02T03:14:51;4.55;;;1.73;;
45764;SDS011;31474;45.332;10.230;2024-03-02T03:17:16;2.85;;;1.30;;
45764;SDS011;31474;45.332;10.230;2024-03-02T03:19:43;2.08;;;1.58;;
45764;SDS011;31474;45.332;10.230;2024-03-02T03:22:08;1.88;;;1.20;;
45764;SDS011;31474;45.332;10.230;2024-03-02T03:24:34;1.40;;;1.20;;
45764;SDS011;31474;45.332;10.230;2024-03-02T03:27:00;1.58;;;1.20;;
45764;SDS011;31474;45.332;10.230;2024-03-02T03:29:26;2.47;;;1.45;;
45764;SDS011;31474;45.332;10.230;2024-03-02T03:31:51;1.65;;;1.25;;
45764;SDS011;31474;45.332;10.230;2024-03-02T03:34:17;3.45;;;1.25;;
45764;SDS011;31474;45.332;10.230;2024-03-02T03:36:42;2.13;;;1.27;;
45764;SDS011;31474;45.332;10.230;2024-03-02T03:39:08;3.03;;;1.75;;
45764;SDS011;31474;45.332;10.230;2024-03-02T03:41:34;2.35;;;1.40;;
45764;SDS011;31474;45.332;10.230;2024-03-02T03:43:59;2.33;;;1.08;;
45764;SDS011;31474;45.332;10.230;2024-03-02T03:46:25;2.00;;;1.50;;
45764;SDS011;31474;45.332;10.230;2024-03-02T03:48:51;1.50;;;1.20;;
45764;SDS011;31474;45.332;10.230;2024-03-02T03:51:16;1.60;;;0.93;;
45764;SDS011;31474;45.332;10.230;2024-03-02T03:53:42;2.35;;;1.35;;
45764;SDS011;31474;45.332;10.230;2024-03-02T03:56:07;1.95;;;1.20;;
45764;SDS011;31474;45.332;10.230;2024-03-02T03:58:33;3.17;;;1.42;;
45764;SDS011;31474;45.332;10.230;2024-03-02T04:00:59;2.88;;;1.30;;
45764;SDS011;31474;45.332;10.230;2024-03-02T04:03:24;1.88;;;1.02;;
45764;SDS011;31474;45.332;10.230;2024-03-02T04:05:50;1.67;;;1.10;;
45764;SDS011;31474;45.332;10.230;2024-03-02T04:08:16;1.10;;;0.90;;
45764;SDS011;31474;45.332;10.230;2024-03-02T04:10:42;2.40;;;1.42;;
45764;SDS011;31474;45.332;10.230;2024-03-02T04:13:07;1.02;;;0.70;;
45764;SDS011;31474;45.332;10.230;2024-03-02T04:15:33;2.58;;;1.40;;
45764;SDS011;31474;45.332;10.230;2024-03-02T04:17:59;2.20;;;1.20;;
45764;SDS011;31474;45.332;10.230;2024-03-02T04:20:24;2.35;;;1.17;;
45764;SDS011;31474;45.332;10.230;2024-03-02T04:22:50;1.70;;;1.30;;
45764;SDS011;31474;45.332;10.230;2024-03-02T04:25:16;2.20;;;1.10;;
45764;SDS011;31474;45.332;10.230;2024-03-02T04:27:41;1.92;;;1.20;;
45764;SDS011;31474;45.332;10.230;2024-03-02T04:30:07;1.75;;;1.00;;
45764;SDS011;31474;45.332;10.230;2024-03-02T04:32:33;1.67;;;0.98;;
45764;SDS011;31474;45.332;10.230;2024-03-02T04:34:59;2.40;;;1.35;;
45764;SDS011;31474;45.332;10.230;2024-03-02T04:37:24;2.50;;;1.10;;
45764;SDS011;31474;45.332;10.230;2024-03-02T04:39:50;2.65;;;1.23;;
45764;SDS011;31474;45.332;10.230;2024-03-02T04:42:15;3.17;;;1.67;;
45764;SDS011;31474;45.332;10.230;2024-03-02T04:44:41;1.80;;;1.30;;
45764;SDS011;31474;45.332;10.230;2024-03-02T04:47:07;2.97;;;1.45;;
45764;SDS011;31474;45.332;10.230;2024-03-02T04:49:33;3.83;;;1.50;;
45764;SDS011;31474;45.332;10.230;2024-03-02T04:51:58;2.17;;;1.40;;
45764;SDS011;31474;45.332;10.230;2024-03-02T04:54:24;1.88;;;1.20;;
45764;SDS011;31474;45.332;10.230;2024-03-02T04:56:50;1.70;;;1.02;;
45764;SDS011;31474;45.332;10.230;2024-03-02T04:59:16;2.17;;;1.35;;
45764;SDS011;31474;45.332;10.230;2024-03-02T05:01:43;2.28;;;1.33;;
45764;SDS011;31474;45.332;10.230;2024-03-02T05:04:09;1.60;;;1.10;;
45764;SDS011;31474;45.332;10.230;2024-03-02T05:06:37;2.65;;;1.35;;
45764;SDS011;31474;45.332;10.230;2024-03-02T05:09:04;1.88;;;1.00;;
45764;SDS011;31474;45.332;10.230;2024-03-02T05:11:29;1.50;;;1.15;;
45764;SDS011;31474;45.332;10.230;2024-03-02T05:14:04;2.22;;;1.00;;
45764;SDS011;31474;45.332;10.230;2024-03-02T05:16:37;2.95;;;1.00;;
45764;SDS011;31474;45.332;10.230;2024-03-02T05:19:03;1.83;;;0.90;;
45764;SDS011;31474;45.332;10.230;2024-03-02T05:21:31;1.67;;;1.13;;
45764;SDS011;31474;45.332;10.230;2024-03-02T05:23:57;1.83;;;1.08;;
45764;SDS011;31474;45.332;10.230;2024-03-02T05:26:23;2.40;;;1.00;;
45764;SDS011;31474;45.332;10.230;2024-03-02T05:28:48;1.88;;;1.10;;
45764;SDS011;31474;45.332;10.230;2024-03-02T05:31:17;2.95;;;1.27;;
45764;SDS011;31474;45.332;10.230;2024-03-02T05:33:42;2.38;;;1.23;;
45764;SDS011;31474;45.332;10.230;2024-03-02T05:36:08;1.88;;;1.30;;
45764;SDS011;31474;45.332;10.230;2024-03-02T05:38:34;2.53;;;1.08;;
45764;SDS011;31474;45.332;10.230;2024-03-02T05:41:00;4.68;;;1.35;;
45764;SDS011;31474;45.332;10.230;2024-03-02T05:43:26;2.92;;;1.50;;
45764;SDS011;31474;45.332;10.230;2024-03-02T05:45:52;4.57;;;1.50;;
45764;SDS011;31474;45.332;10.230;2024-03-02T05:48:17;2.08;;;1.63;;
45764;SDS011;31474;45.332;10.230;2024-03-02T05:50:43;1.52;;;1.17;;
45764;SDS011;31474;45.332;10.230;2024-03-02T05:53:08;2.55;;;1.60;;
45764;SDS011;31474;45.332;10.230;2024-03-02T05:55:34;1.83;;;1.08;;
45764;SDS011;31474;45.332;10.230;2024-03-02T05:58:00;3.40;;;1.20;;
45764;SDS011;31474;45.332;10.230;2024-03-02T06:00:28;1.83;;;1.30;;
45764;SDS011;31474;45.332;10.230;2024-03-02T06:02:55;2.03;;;1.50;;
45764;SDS011;31474;45.332;10.230;2024-03-02T06:05:21;2.15;;;1.55;;
45764;SDS011;31474;45.332;10.230;2024-03-02T06:07:47;2.78;;;1.40;;
45764;SDS011;31474;45.332;10.230;2024-03-02T06:10:13;2.30;;;1.35;;
45764;SDS011;31474;45.332;10.230;2024-03-02T06:12:39;2.10;;;1.00;;
45764;SDS011;31474;45.332;10.230;2024-03-02T06:15:05;1.90;;;1.42;;
45764;SDS011;31474;45.332;10.230;2024-03-02T06:17:31;1.80;;;1.00;;
45764;SDS011;31474;45.332;10.230;2024-03-02T06:19:56;2.15;;;1.30;;
45764;SDS011;31474;45.332;10.230;2024-03-02T06:22:22;3.80;;;1.30;;
45764;SDS011;31474;45.332;10.230;2024-03-02T06:24:50;3.65;;;1.35;;
45764;SDS011;31474;45.332;10.230;2024-03-02T06:27:15;3.60;;;1.20;;
45764;SDS011;31474;45.332;10.230;2024-03-02T06:29:41;2.78;;;1.65;;
45764;SDS011;31474;45.332;10.230;2024-03-02T06:32:07;1.50;;;1.13;;
45764;SDS011;31474;45.332;10.230;2024-03-02T06:34:33;4.88;;;1.30;;
45764;SDS011;31474;45.332;10.230;2024-03-02T06:36:59;8.30;;;2.58;;
45764;SDS011;31474;45.332;10.230;2024-03-02T06:39:24;7.38;;;2.40;;
45764;SDS011;31474;45.332;10.230;2024-03-02T06:41:51;13.20;;;3.17;;
45764;SDS011;31474;45.332;10.230;2024-03-02T06:44:17;9.05;;;2.33;;
45764;SDS011;31474;45.332;10.230;2024-03-02T06:46:42;13.32;;;2.80;;
45764;SDS011;31474;45.332;10.230;2024-03-02T06:49:08;8.35;;;3.20;;
45764;SDS011;31474;45.332;10.230;2024-03-02T06:51:35;6.50;;;2.58;;
45764;SDS011;31474;45.332;10.230;2024-03-02T06:54:01;9.48;;;2.55;;
45764;SDS011;31474;45.332;10.230;2024-03-02T06:56:27;10.02;;;2.95;;
45764;SDS011;31474;45.332;10.230;2024-03-02T06:58:53;10.07;;;3.13;;
45764;SDS011;31474;45.332;10.230;2024-03-02T07:01:18;6.50;;;2.83;;
45764;SDS011;31474;45.332;10.230;2024-03-02T07:03:45;7.03;;;2.15;;
45764;SDS011;31474;45.332;10.230;2024-03-02T07:06:11;9.45;;;2.53;;
45764;SDS011;31474;45.332;10.230;2024-03-02T07:08:36;6.75;;;2.40;;
45764;SDS011;31474;45.332;10.230;2024-03-02T07:11:02;7.82;;;2.92;;
45764;SDS011;31474;45.332;10.230;2024-03-02T07:13:28;7.28;;;2.35;;
45764;SDS011;31474;45.332;10.230;2024-03-02T07:15:53;5.43;;;2.50;;
45764;SDS011;31474;45.332;10.230;2024-03-02T07:18:29;9.07;;;2.22;;
45764;SDS011;31474;45.332;10.230;2024-03-02T07:20:55;7.15;;;2.22;;
45764;SDS011;31474;45.332;10.230;2024-03-02T07:23:24;5.85;;;2.65;;
45764;SDS011;31474;45.332;10.230;2024-03-02T07:25:52;7.22;;;2.55;;
45764;SDS011;31474;45.332;10.230;2024-03-02T07:28:21;6.18;;;2.92;;
45764;SDS011;31474;45.332;10.230;2024-03-02T07:33:29;6.32;;;2.25;;
45764;SDS011;31474;45.332;10.230;2024-03-02T07:35:55;5.07;;;1.65;;
45764;SDS011;31474;45.332;10.230;2024-03-02T07:38:22;5.47;;;2.10;;
45764;SDS011;31474;45.332;10.230;2024-03-02T07:40:48;5.22;;;2.08;;
45764;SDS011;31474;45.332;10.230;2024-03-02T07:43:18;5.57;;;2.13;;
45764;SDS011;31474;45.332;10.230;2024-03-02T07:45:44;5.65;;;1.83;;
45764;SDS011;31474;45.332;10.230;2024-03-02T07:48:13;3.67;;;1.33;;
45764;SDS011;31474;45.332;10.230;2024-03-02T07:50:39;4.18;;;1.80;;
45764;SDS011;31474;45.332;10.230;2024-03-02T07:53:05;2.80;;;1.40;;
45764;SDS011;31474;45.332;10.230;2024-03-02T07:55:32;5.68;;;1.58;;
45764;SDS011;31474;45.332;10.230;2024-03-02T07:57:58;4.28;;;1.65;;
45764;SDS011;31474;45.332;10.230;2024-03-02T08:00:25;3.30;;;1.30;;
45764;SDS011;31474;45.332;10.230;2024-03-02T08:02:53;2.35;;;1.20;;
45764;SDS011;31474;45.332;10.230;2024-03-02T08:05:19;4.47;;;1.77;;
45764;SDS011;31474;45.332;10.230;2024-03-02T08:07:45;2.22;;;1.40;;
45764;SDS011;31474;45.332;10.230;2024-03-02T08:10:12;3.95;;;1.67;;
45764;SDS011;31474;45.332;10.230;2024-03-02T08:12:38;3.00;;;1.98;;
45764;SDS011;31474;45.332;10.230;2024-03-02T08:15:04;9.40;;;1.85;;
45764;SDS011;31474;45.332;10.230;2024-03-02T08:17:30;3.58;;;1.58;;
45764;SDS011;31474;45.332;10.230;2024-03-02T08:19:56;4.20;;;1.88;;
45764;SDS011;31474;45.332;10.230;2024-03-02T08:22:22;2.97;;;1.50;;
45764;SDS011;31474;45.332;10.230;2024-03-02T08:24:50;4.03;;;1.80;;
45764;SDS011;31474;45.332;10.230;2024-03-02T08:27:16;3.17;;;1.35;;
45764;SDS011;31474;45.332;10.230;2024-03-02T08:29:42;2.33;;;1.55;;
45764;SDS011;31474;45.332;10.230;2024-03-02T08:32:07;2.97;;;1.70;;
45764;SDS011;31474;45.332;10.230;2024-03-02T08:34:33;5.18;;;1.65;;
45764;SDS011;31474;45.332;10.230;2024-03-02T08:37:00;3.22;;;1.35;;
45764;SDS011;31474;45.332;10.230;2024-03-02T08:39:30;5.05;;;1.58;;
45764;SDS011;31474;45.332;10.230;2024-03-02T08:41:55;3.72;;;1.42;;
45764;SDS011;31474;45.332;10.230;2024-03-02T08:44:21;4.78;;;1.73;;
45764;SDS011;31474;45.332;10.230;2024-03-02T08:46:47;3.13;;;1.50;;
45764;SDS011;31474;45.332;10.230;2024-03-02T08:49:12;5.35;;;1.58;;
45764;SDS011;31474;45.332;10.230;2024-03-02T08:51:38;2.72;;;1.58;;
45764;SDS011;31474;45.332;10.230;2024-03-02T08:54:04;5.03;;;1.50;;
45764;SDS011;31474;45.332;10.230;2024-03-02T08:56:30;4.43;;;1.58;;
45764;SDS011;31474;45.332;10.230;2024-03-02T08:58:56;2.85;;;1.42;;
45764;SDS011;31474;45.332;10.230;2024-03-02T09:01:22;3.53;;;1.60;;
45764;SDS011;31474;45.332;10.230;2024-03-02T09:03:48;3.08;;;1.40;;
45764;SDS011;31474;45.332;10.230;2024-03-02T09:06:16;3.05;;;1.25;;
45764;SDS011;31474;45.332;10.230;2024-03-02T09:08:43;3.92;;;1.27;;
45764;SDS011;31474;45.332;10.230;2024-03-02T09:11:09;2.20;;;1.42;;
45764;SDS011;31474;45.332;10.230;2024-03-02T09:13:35;3.03;;;1.58;;
45764;SDS011;31474;45.332;10.230;2024-03-02T09:16:02;5.50;;;1.65;;
45764;SDS011;31474;45.332;10.230;2024-03-02T09:18:29;2.35;;;1.35;;
45764;SDS011;31474;45.332;10.230;2024-03-02T09:20:54;4.03;;;1.70;;
45764;SDS011;31474;45.332;10.230;2024-03-02T09:23:20;2.28;;;1.08;;
45764;SDS011;31474;45.332;10.230;2024-03-02T09:25:46;2.85;;;1.50;;
45764;SDS011;31474;45.332;10.230;2024-03-02T09:28:12;2.72;;;1.30;;
45764;SDS011;31474;45.332;10.230;2024-03-02T09:30:37;2.95;;;1.58;;
45764;SDS011;31474;45.332;10.230;2024-03-02T09:33:03;3.75;;;1.52;;
45764;SDS011;31474;45.332;10.230;2024-03-02T09:35:29;2.17;;;0.93;;
45764;SDS011;31474;45.332;10.230;2024-03-02T09:37:55;3.47;;;1.48;;
45764;SDS011;31474;45.332;10.230;2024-03-02T09:40:21;1.73;;;1.10;;
45764;SDS011;31474;45.332;10.230;2024-03-02T09:42:47;2.95;;;1.42;;
45764;SDS011;31474;45.332;10.230;2024-03-02T09:45:18;2.40;;;1.30;;
45764;SDS011;31474;45.332;10.230;2024-03-02T09:47:48;4.35;;;1.70;;
45764;SDS011;31474;45.332;10.230;2024-03-02T09:50:14;1.67;;;1.20;;
45764;SDS011;31474;45.332;10.230;2024-03-02T09:52:40;3.05;;;1.40;;
45764;SDS011;31474;45.332;10.230;2024-03-02T09:55:08;5.18;;;1.65;;
45764;SDS011;31474;45.332;10.230;2024-03-02T09:57:34;2.08;;;1.10;;
45764;SDS011;31474;45.332;10.230;2024-03-02T09:59:59;2.58;;;1.30;;
45764;SDS011;31474;45.332;10.230;2024-03-02T10:02:25;4.15;;;1.42;;
45764;SDS011;31474;45.332;10.230;2024-03-02T10:04:52;4.20;;;1.90;;
45764;SDS011;31474;45.332;10.230;2024-03-02T10:07:18;2.78;;;1.65;;
45764;SDS011;31474;45.332;10.230;2024-03-02T10:09:45;2.75;;;1.20;;
45764;SDS011;31474;45.332;10.230;2024-03-02T10:12:12;3.85;;;1.52;;
45764;SDS011;31474;45.332;10.230;2024-03-02T10:14:39;1.77;;;1.40;;
45764;SDS011;31474;45.332;10.230;2024-03-02T10:17:11;2.55;;;1.40;;
45764;SDS011;31474;45.332;10.230;2024-03-02T10:19:38;2.83;;;2.10;;
45764;SDS011;31474;45.332;10.230;2024-03-02T10:22:05;5.57;;;2.78;;
45764;SDS011;31474;45.332;10.230;2024-03-02T10:27:16;5.80;;;2.38;;
45764;SDS011;31474;45.332;10.230;2024-03-02T10:29:46;8.63;;;3.58;;
45764;SDS011;31474;45.332;10.230;2024-03-02T10:32:12;7.70;;;3.28;;
45764;SDS011;31474;45.332;10.230;2024-03-02T10:34:42;5.53;;;2.95;;
45764;SDS011;31474;45.332;10.230;2024-03-02T10:37:10;9.50;;;3.13;;
45764;SDS011;31474;45.332;10.230;2024-03-02T10:39:37;4.50;;;3.10;;
45764;SDS011;31474;45.332;10.230;2024-03-02T10:42:04;5.03;;;2.88;;
45764;SDS011;31474;45.332;10.230;2024-03-02T10:44:31;11.48;;;3.25;;
45764;SDS011;31474;45.332;10.230;2024-03-02T10:46:59;4.53;;;2.50;;
45764;SDS011;31474;45.332;10.230;2024-03-02T10:49:30;6.75;;;2.58;;
45764;SDS011;31474;45.332;10.230;2024-03-02T10:51:59;9.05;;;3.42;;
45764;SDS011;31474;45.332;10.230;2024-03-02T10:54:25;5.57;;;2.30;;
45764;SDS011;31474;45.332;10.230;2024-03-02T10:56:52;20.40;;;3.72;;
45764;SDS011;31474;45.332;10.230;2024-03-02T11:01:56;6.13;;;2.55;;
45764;SDS011;31474;45.332;10.230;2024-03-02T11:04:24;6.80;;;2.20;;
45764;SDS011;31474;45.332;10.230;2024-03-02T11:06:51;5.53;;;2.58;;
45764;SDS011;31474;45.332;10.230;2024-03-02T11:09:20;4.55;;;2.90;;
45764;SDS011;31474;45.332;10.230;2024-03-02T11:12:22;3.50;;;2.38;;
45764;SDS011;31474;45.332;10.230;2024-03-02T11:14:44;15.38;;;2.47;;
45764;SDS011;31474;45.332;10.230;2024-03-02T11:17:10;10.27;;;3.60;;
45764;SDS011;31474;45.332;10.230;2024-03-02T11:19:38;18.27;;;3.92;;
45764;SDS011;31474;45.332;10.230;2024-03-02T11:22:05;15.30;;;3.85;;
45764;SDS011;31474;45.332;10.230;2024-03-02T11:24:31;9.27;;;2.78;;
45764;SDS011;31474;45.332;10.230;2024-03-02T11:26:58;9.90;;;3.30;;
45764;SDS011;31474;45.332;10.230;2024-03-02T11:32:05;10.77;;;4.15;;
45764;SDS011;31474;45.332;10.230;2024-03-02T11:34:39;11.98;;;3.15;;
45764;SDS011;31474;45.332;10.230;2024-03-02T11:37:10;7.22;;;3.08;;
45764;SDS011;31474;45.332;10.230;2024-03-02T11:39:37;11.02;;;3.08;;
45764;SDS011;31474;45.332;10.230;2024-03-02T11:42:07;5.90;;;3.30;;
45764;SDS011;31474;45.332;10.230;2024-03-02T11:44:36;9.07;;;3.00;;
45764;SDS011;31474;45.332;10.230;2024-03-02T11:47:07;7.28;;;4.40;;
45764;SDS011;31474;45.332;10.230;2024-03-02T11:49:39;4.72;;;2.70;;
45764;SDS011;31474;45.332;10.230;2024-03-02T11:52:10;6.43;;;3.55;;
45764;SDS011;31474;45.332;10.230;2024-03-02T11:54:42;6.32;;;3.25;;
45764;SDS011;31474;45.332;10.230;2024-03-02T11:57:16;7.60;;;3.28;;
45764;SDS011;31474;45.332;10.230;2024-03-02T11:59:44;6.80;;;2.92;;
45764;SDS011;31474;45.332;10.230;2024-03-02T12:02:14;8.43;;;3.22;;
45764;SDS011;31474;45.332;10.230;2024-03-02T12:04:42;10.75;;;3.15;;
45764;SDS011;31474;45.332;10.230;2024-03-02T12:07:08;12.15;;;3.28;;
45764;SDS011;31474;45.332;10.230;2024-03-02T12:09:34;7.55;;;3.47;;
45764;SDS011;31474;45.332;10.230;2024-03-02T12:12:07;7.03;;;2.30;;
45764;SDS011;31474;45.332;10.230;2024-03-02T12:14:34;7.82;;;3.10;;
45764;SDS011;31474;45.332;10.230;2024-03-02T12:17:01;6.38;;;2.80;;
45764;SDS011;31474;45.332;10.230;2024-03-02T12:19:28;5.60;;;3.30;;
45764;SDS011;31474;45.332;10.230;2024-03-02T12:21:55;4.55;;;2.38;;
45764;SDS011;31474;45.332;10.230;2024-03-02T12:24:21;9.63;;;3.67;;
45764;SDS011;31474;45.332;10.230;2024-03-02T12:26:50;6.28;;;2.83;;
45764;SDS011;31474;45.332;10.230;2024-03-02T12:29:18;4.90;;;3.03;;
45764;SDS011;31474;45.332;10.230;2024-03-02T12:31:45;7.43;;;3.35;;
45764;SDS011;31474;45.332;10.230;2024-03-02T12:34:16;6.35;;;2.72;;
45764;SDS011;31474;45.332;10.230;2024-03-02T12:36:42;8.15;;;3.05;;
45764;SDS011;31474;45.332;10.230;2024-03-02T12:39:12;7.93;;;3.40;;
45764;SDS011;31474;45.332;10.230;2024-03-02T12:41:38;7.03;;;3.00;;
45764;SDS011;31474;45.332;10.230;2024-03-02T12:44:04;5.30;;;2.80;;
45764;SDS011;31474;45.332;10.230;2024-03-02T12:46:31;6.63;;;2.78;;
45764;SDS011;31474;45.332;10.230;2024-03-02T12:48:57;4.93;;;2.97;;
45764;SDS011;31474;45.332;10.230;2024-03-02T12:51:29;3.37;;;2.47;;
45764;SDS011;31474;45.332;10.230;2024-03-02T12:53:56;5.20;;;3.13;;
45764;SDS011;31474;45.332;10.230;2024-03-02T12:56:22;5.93;;;3.15;;
45764;SDS011;31474;45.332;10.230;2024-03-02T12:58:53;5.07;;;2.92;;
45764;SDS011;31474;45.332;10.230;2024-03-02T13:01:19;6.38;;;2.72;;
45764;SDS011;31474;45.332;10.230;2024-03-02T13:03:44;6.20;;;2.60;;
45764;SDS011;31474;45.332;10.230;2024-03-02T13:06:12;5.63;;;2.80;;
45764;SDS011;31474;45.332;10.230;2024-03-02T13:08:38;4.80;;;2.17;;
45764;SDS011;31474;45.332;10.230;2024-03-02T13:11:04;4.20;;;2.58;;
45764;SDS011;31474;45.332;10.230;2024-03-02T13:13:32;5.50;;;2.20;;
45764;SDS011;31474;45.332;10.230;2024-03-02T13:15:58;5.68;;;2.28;;
45764;SDS011;31474;45.332;10.230;2024-03-02T13:18:23;3.38;;;2.38;;
45764;SDS011;31474;45.332;10.230;2024-03-02T13:20:49;4.40;;;2.75;;
45764;SDS011;31474;45.332;10.230;2024-03-02T13:23:15;3.42;;;2.03;;
45764;SDS011;31474;45.332;10.230;2024-03-02T13:25:40;4.47;;;2.20;;
45764;SDS011;31474;45.332;10.230;2024-03-02T13:28:06;6.32;;;2.40;;
45764;SDS011;31474;45.332;10.230;2024-03-02T13:30:32;4.82;;;2.28;;
45764;SDS011;31474;45.332;10.230;2024-03-02T13:32:58;4.72;;;2.85;;
45764;SDS011;31474;45.332;10.230;2024-03-02T13:35:24;4.55;;;1.98;;
45764;SDS011;31474;45.332;10.230;2024-03-02T13:37:49;6.43;;;2.65;;
45764;SDS011;31474;45.332;10.230;2024-03-02T13:40:15;3.75;;;2.17;;
45764;SDS011;31474;45.332;10.230;2024-03-02T13:42:45;3.60;;;1.80;;
45764;SDS011;31474;45.332;10.230;2024-03-02T13:45:11;3.83;;;2.15;;
45764;SDS011;31474;45.332;10.230;2024-03-02T13:47:38;6.07;;;2.08;;
45764;SDS011;31474;45.332;10.230;2024-03-02T13:50:03;3.90;;;1.60;;
45764;SDS011;31474;45.332;10.230;2024-03-02T13:52:30;4.28;;;1.92;;
45764;SDS011;31474;45.332;10.230;2024-03-02T13:54:56;3.40;;;2.22;;
45764;SDS011;31474;45.332;10.230;2024-03-02T13:57:21;3.92;;;1.83;;
45764;SDS011;31474;45.332;10.230;2024-03-02T13:59:47;3.13;;;1.90;;
45764;SDS011;31474;45.332;10.230;2024-03-02T14:02:13;2.80;;;1.55;;
45764;SDS011;31474;45.332;10.230;2024-03-02T14:04:40;3.85;;;2.30;;
45764;SDS011;31474;45.332;10.230;2024-03-02T14:07:06;3.53;;;1.60;;
45764;SDS011;31474;45.332;10.230;2024-03-02T14:09:32;6.65;;;2.40;;
45764;SDS011;31474;45.332;10.230;2024-03-02T14:11:58;3.13;;;1.27;;
45764;SDS011;31474;45.332;10.230;2024-03-02T14:14:25;4.05;;;2.42;;
45764;SDS011;31474;45.332;10.230;2024-03-02T14:16:52;3.67;;;2.13;;
45764;SDS011;31474;45.332;10.230;2024-03-02T14:19:18;7.15;;;2.22;;
45764;SDS011;31474;45.332;10.230;2024-03-02T14:21:44;4.28;;;1.90;;
45764;SDS011;31474;45.332;10.230;2024-03-02T14:24:09;3.70;;;2.40;;
45764;SDS011;31474;45.332;10.230;2024-03-02T14:26:35;4.05;;;1.85;;
45764;SDS011;31474;45.332;10.230;2024-03-02T14:29:02;4.82;;;2.08;;
45764;SDS011;31474;45.332;10.230;2024-03-02T14:31:28;4.00;;;1.50;;
45764;SDS011;31474;45.332;10.230;2024-03-02T14:33:54;5.03;;;2.00;;
45764;SDS011;31474;45.332;10.230;2024-03-02T14:36:20;3.97;;;1.85;;
45764;SDS011;31474;45.332;10.230;2024-03-02T14:38:46;3.22;;;2.20;;
45764;SDS011;31474;45.332;10.230;2024-03-02T14:41:11;2.78;;;2.17;;
45764;SDS011;31474;45.332;10.230;2024-03-02T14:43:38;4.70;;;2.20;;